M/T Pazar — TCMC — position and weather

sailwx.info

Track history (hours):
 
Tides and Currents Weather Stations Pressure Air Temp Water Temp Dewpoint Dewpoint Depression Visibility Wind Speed Wind Dir Waves Ship Positions

M/T Pazar

Last reported at 2017-Apr-24 11:36 UTC. Time now 2017-Apr-24 13:19 UTC.
Position N 36°54' E 001°39'.

Length 85 m; draft 4.9 m.

Type: Tanker. MMSI: 271000251.

Date/timePositionNaut miles runAvg speedWind from/ knotsBaromVisibWave heightAir tempDewpointWater temp
2017-Apr-24 11:36N 36°54' E 001°39'2710.3
2017-Apr-24 09:01N 36°58' E 002°12'010.5
2017-Apr-24 08:58N 36°58' E 002°13'510.4
2017-Apr-24 08:30N 36°58' E 002°19'510.3
2017-Apr-24 08:00N 36°59' E 002°25'1410.1
2017-Apr-24 06:35N 37°00' E 002°43'110.3
2017-Apr-24 06:29N 37°01' E 002°44'510.3
2017-Apr-24 06:00N 37°01' E 002°50'510.2
2017-Apr-24 05:30N 37°02' E 002°57'510.2
2017-Apr-24 05:00N 37°03' E 003°03'510.2
2017-Apr-24 04:30N 37°04' E 003°09'510.2
2017-Apr-24 04:00N 37°05' E 003°16'510.0
2017-Apr-24 03:30N 37°06' E 003°22'510.1
2017-Apr-24 02:59N 37°07' E 003°28'3510.0
2017-Apr-23 23:26N 37°12' E 004°12'410.0
2017-Apr-23 23:00N 37°12' E 004°18'510.0
2017-Apr-23 22:30N 37°12' E 004°24'510.0
2017-Apr-23 22:00N 37°13' E 004°30'510.0
2017-Apr-23 21:30N 37°13' E 004°37'5 9.9
2017-Apr-23 21:00N 37°13' E 004°43'2310.1
2017-Apr-23 18:41N 37°15' E 005°12'710.2
2017-Apr-23 18:03N 37°15' E 005°20'0 9.9
2017-Apr-23 18:00N 37°15' E 005°21'510.1
2017-Apr-23 17:30N 37°16' E 005°27'510.0
2017-Apr-23 16:59N 37°16' E 005°34'5 9.9
2017-Apr-23 16:30N 37°16' E 005°40'5 9.8
2017-Apr-23 16:00N 37°17' E 005°46'5 9.9
2017-Apr-23 15:30N 37°17' E 005°52'  
2017-Apr-17 01:19N 37°16' E 004°10'  
Track history (hours):
 
Tides and Currents Weather Stations Pressure Air Temp Water Temp Dewpoint Dewpoint Depression Visibility Wind Speed Wind Dir Waves Ship Positions

M/T Pazar

Last reported at 2017-Apr-24 11:36 UTC. Time now 2017-Apr-24 13:19 UTC.
Position N 36°54' E 001°39'.

Length 85 m; draft 4.9 m.

Type: Tanker. MMSI: 271000251.

Date/timePositionNaut miles runAvg speedWind from/ knotsBaromVisibWave heightAir tempDewpointWater temp
2017-Apr-24 11:36N 36°54' E 001°39'2710.3
2017-Apr-24 09:01N 36°58' E 002°12'010.5
2017-Apr-24 08:58N 36°58' E 002°13'510.4
2017-Apr-24 08:30N 36°58' E 002°19'510.3
2017-Apr-24 08:00N 36°59' E 002°25'1410.1
2017-Apr-24 06:35N 37°00' E 002°43'110.3
2017-Apr-24 06:29N 37°01' E 002°44'510.3
2017-Apr-24 06:00N 37°01' E 002°50'510.2
2017-Apr-24 05:30N 37°02' E 002°57'510.2
2017-Apr-24 05:00N 37°03' E 003°03'510.2
2017-Apr-24 04:30N 37°04' E 003°09'510.2
2017-Apr-24 04:00N 37°05' E 003°16'510.0
2017-Apr-24 03:30N 37°06' E 003°22'510.1
2017-Apr-24 02:59N 37°07' E 003°28'3510.0
2017-Apr-23 23:26N 37°12' E 004°12'410.0
2017-Apr-23 23:00N 37°12' E 004°18'510.0
2017-Apr-23 22:30N 37°12' E 004°24'510.0
2017-Apr-23 22:00N 37°13' E 004°30'510.0
2017-Apr-23 21:30N 37°13' E 004°37'5 9.9
2017-Apr-23 21:00N 37°13' E 004°43'2310.1
2017-Apr-23 18:41N 37°15' E 005°12'710.2
2017-Apr-23 18:03N 37°15' E 005°20'0 9.9
2017-Apr-23 18:00N 37°15' E 005°21'510.1
2017-Apr-23 17:30N 37°16' E 005°27'510.0
2017-Apr-23 16:59N 37°16' E 005°34'5 9.9
2017-Apr-23 16:30N 37°16' E 005°40'5 9.8
2017-Apr-23 16:00N 37°17' E 005°46'5 9.9
2017-Apr-23 15:30N 37°17' E 005°52'  
2017-Apr-17 01:19N 37°16' E 004°10'  

Dump ship's entire track history